createdAt,value
2022-12-05T00:03:06.377Z,100894.30
2022-12-05T00:08:09.840Z,100886.17
2022-12-05T00:13:13.306Z,100889.50
2022-12-05T00:18:16.719Z,100887.39
2022-12-05T00:23:20.029Z,100892.83
2022-12-05T00:28:23.444Z,100885.69
2022-12-05T00:33:26.856Z,100871.88
2022-12-05T00:38:30.370Z,100861.87
2022-12-05T00:43:34.198Z,100858.61
2022-12-05T00:48:38.017Z,100850.16
2022-12-05T00:53:42.145Z,100851.93
2022-12-05T00:58:46.275Z,100863.11
2022-12-05T01:03:51.644Z,100865.03
2022-12-05T01:08:56.544Z,100859.46
2022-12-05T01:14:00.202Z,100864.34
2022-12-05T01:19:09.351Z,100862.86
2022-12-05T01:24:12.866Z,100859.30
2022-12-05T01:29:18.934Z,100856.98
2022-12-05T01:34:22.767Z,100851.88
2022-12-05T01:39:26.589Z,100855.50
2022-12-05T01:44:29.898Z,100845.64
2022-12-05T01:49:42.486Z,100841.77
2022-12-05T01:54:48.482Z,100848.36
2022-12-05T01:59:56.241Z,100845.73
2022-12-05T02:05:14.988Z,100845.81
2022-12-05T02:10:19.117Z,100846.04
2022-12-05T02:15:24.987Z,100833.95
2022-12-05T02:21:39.468Z,100828.29
2022-12-05T02:27:01.004Z,100820.05
2022-12-05T02:32:12.814Z,100822.00
2022-12-05T02:37:23.297Z,100823.94
2022-12-05T02:42:42.377Z,100818.44
2022-12-05T02:47:53.256Z,100808.67
2022-12-05T02:53:01.281Z,100804.09
2022-12-05T02:58:11.660Z,100807.80
2022-12-05T03:03:18.672Z,100818.13
2022-12-05T03:08:28.725Z,100815.65
2022-12-05T03:13:46.376Z,100806.11
2022-12-05T03:18:57.055Z,100803.55
2022-12-05T03:24:07.072Z,100806.89
2022-12-05T03:29:37.063Z,100808.73
2022-12-05T03:34:51.941Z,100816.89
2022-12-05T03:40:19.742Z,100818.35
2022-12-05T03:45:32.150Z,100818.81
2022-12-05T03:50:40.274Z,100813.46
2022-12-05T03:55:47.783Z,100814.80
2022-12-05T04:00:54.504Z,100806.65
2022-12-05T04:06:01.819Z,100805.33
2022-12-05T04:11:16.046Z,100799.67
2022-12-05T04:16:50.282Z,100799.90
2022-12-05T04:21:57.370Z,100792.30
2022-12-05T04:27:10.931Z,100790.13
2022-12-05T04:32:15.063Z,100783.30
2022-12-05T04:37:24.246Z,100781.66
2022-12-05T04:42:31.625Z,100784.23
2022-12-05T04:47:54.487Z,100772.07
2022-12-05T04:52:59.860Z,100762.52
2022-12-05T04:58:18.308Z,100773.14
2022-12-05T05:03:28.387Z,100783.11
2022-12-05T05:08:31.795Z,100783.96
2022-12-05T05:13:35.411Z,100787.46
2022-12-05T05:18:38.823Z,100787.70
2022-12-05T05:23:42.133Z,100788.70
2022-12-05T05:28:46.776Z,100787.77
2022-12-05T05:33:55.490Z,100788.46
2022-12-05T05:39:01.423Z,100779.57
2022-12-05T05:44:06.641Z,100770.73
2022-12-05T05:49:10.989Z,100769.04
2022-12-05T05:54:14.080Z,100768.26
2022-12-05T05:59:17.500Z,100763.92
2022-12-05T06:04:20.966Z,100761.05
2022-12-05T06:09:24.526Z,100767.50
2022-12-05T06:14:27.938Z,100770.06
2022-12-05T06:19:31.356Z,100772.23
2022-12-05T06:24:34.662Z,100765.39
2022-12-05T06:29:38.178Z,100762.91
2022-12-05T06:34:41.590Z,100767.25
2022-12-05T06:39:45.004Z,100775.92
2022-12-05T06:44:48.420Z,100787.17
2022-12-05T06:49:51.833Z,100789.11
2022-12-05T06:54:55.149Z,100796.86
2022-12-05T07:00:16.994Z,100797.56
2022-12-05T07:05:20.605Z,100797.41
2022-12-05T07:10:23.918Z,100793.84
2022-12-05T07:15:27.249Z,100799.41
2022-12-05T07:21:03.446Z,100806.55
2022-12-05T07:25:54.838Z,100799.88
2022-12-05T07:31:19.099Z,100803.67
2022-12-05T07:36:24.098Z,100799.26
2022-12-05T07:41:30.467Z,100798.80
2022-12-05T07:46:33.681Z,100791.90
2022-12-05T07:51:37.606Z,100791.52
2022-12-05T07:56:46.171Z,100788.58
2022-12-05T08:01:51.287Z,100783.46
2022-12-05T08:06:54.810Z,100779.28
2022-12-05T08:11:58.223Z,100782.07
2022-12-05T08:17:01.784Z,100791.84
2022-12-05T08:22:05.457Z,100789.36
2022-12-05T08:27:08.668Z,100786.41
2022-12-05T08:32:12.079Z,100784.94
2022-12-05T08:37:15.604Z,100782.62
2022-12-05T08:42:19.007Z,100780.13
2022-12-05T08:47:22.421Z,100776.56
2022-12-05T08:52:25.937Z,100774.63
2022-12-05T08:57:29.349Z,100772.52
2022-12-05T09:02:34.347Z,100782.06
2022-12-05T09:07:38.248Z,100786.09
2022-12-05T09:12:41.739Z,100775.70
2022-12-05T09:17:45.564Z,100775.00
2022-12-05T09:22:48.974Z,100772.60
2022-12-05T09:27:54.847Z,100775.30
2022-12-05T09:32:58.157Z,100772.72
2022-12-05T09:38:01.568Z,100768.52
2022-12-05T09:43:08.669Z,100751.59
2022-12-05T09:48:15.849Z,100740.36
2022-12-05T09:53:34.338Z,100733.45
2022-12-05T09:58:46.863Z,100729.89
2022-12-05T10:04:24.203Z,100728.41
2022-12-05T10:09:51.035Z,100718.06
2022-12-05T10:15:16.261Z,100702.98
2022-12-05T10:20:27.352Z,100700.02
2022-12-05T10:25:33.735Z,100698.05
2022-12-05T10:30:42.228Z,100699.39
2022-12-05T10:35:45.578Z,100693.52
2022-12-05T10:40:53.087Z,100688.40
2022-12-05T10:45:56.908Z,100681.79
2022-12-05T10:51:01.246Z,100672.70
2022-12-05T10:56:31.344Z,100667.34
2022-12-05T11:01:37.507Z,100661.05
2022-12-05T11:07:00.543Z,100657.48
2022-12-05T11:12:15.006Z,100658.58
2022-12-05T11:17:25.794Z,100647.92
2022-12-05T11:22:34.636Z,100645.95
2022-12-05T11:27:37.946Z,100646.84
2022-12-05T11:32:41.254Z,100649.84
2022-12-05T11:38:03.410Z,100647.58
2022-12-05T11:43:33.034Z,100646.01
2022-12-05T11:49:03.377Z,100639.44
2022-12-05T11:54:09.560Z,100636.21
2022-12-05T11:59:50.860Z,100629.21
2022-12-05T12:05:14.345Z,100619.14
2022-12-05T12:10:37.518Z,100623.59
2022-12-05T12:16:22.338Z,100617.85
2022-12-05T12:22:07.802Z,100607.66
2022-12-05T12:27:47.666Z,100600.91
2022-12-05T12:33:11.986Z,100587.84
2022-12-05T12:38:51.285Z,100582.96
2022-12-05T12:43:58.143Z,100579.02
2022-12-05T12:49:28.670Z,100575.06
2022-12-05T12:55:07.313Z,100575.99
2022-12-05T13:00:32.634Z,100569.87
2022-12-05T13:05:42.702Z,100566.23
2022-12-05T13:10:48.485Z,100560.95
2022-12-05T13:15:55.880Z,100559.63
2022-12-05T13:21:02.156Z,100560.48
2022-12-05T13:26:11.307Z,100549.16
2022-12-05T13:31:17.309Z,100545.98
2022-12-05T13:36:42.091Z,100543.64
2022-12-05T13:42:05.578Z,100542.16
2022-12-05T13:47:33.977Z,100535.66
2022-12-05T13:53:06.060Z,100529.30
2022-12-05T13:58:24.538Z,100526.05
2022-12-05T14:03:34.185Z,100531.16
2022-12-05T14:08:40.773Z,100531.62
2022-12-05T14:13:45.503Z,100527.96
2022-12-05T14:19:37.263Z,100519.64
2022-12-05T14:24:57.778Z,100511.13
2022-12-05T14:30:34.014Z,100508.34
2022-12-05T14:35:55.600Z,100508.11
2022-12-05T14:41:15.194Z,100495.92
2022-12-05T14:46:31.439Z,100483.14
2022-12-05T14:51:34.823Z,100469.50
2022-12-05T14:56:44.345Z,100467.98
2022-12-05T15:01:52.779Z,100461.64
2022-12-05T15:07:03.489Z,100442.89
2022-12-05T15:12:22.775Z,100425.95
2022-12-05T15:17:30.796Z,100432.40
2022-12-05T15:22:37.284Z,100437.99
2022-12-05T15:27:40.593Z,100440.58
2022-12-05T15:32:44.823Z,100442.25
2022-12-05T15:37:58.579Z,100449.60
2022-12-05T15:43:01.993Z,100455.42
2022-12-05T15:48:08.482Z,100462.40
2022-12-05T15:53:14.737Z,100455.23
2022-12-05T15:58:27.717Z,100462.02
2022-12-05T16:03:46.879Z,100467.61
2022-12-05T16:08:51.886Z,100468.13
2022-12-05T16:13:58.405Z,100467.10
2022-12-05T16:19:25.075Z,100456.31
2022-12-05T16:24:31.582Z,100452.36
2022-12-05T16:29:36.102Z,100441.90
2022-12-05T16:34:39.405Z,100437.55
2022-12-05T16:39:46.314Z,100431.13
2022-12-05T16:45:05.585Z,100425.69
2022-12-05T16:50:44.532Z,100417.63
2022-12-05T16:55:48.870Z,100410.31
2022-12-05T17:00:52.588Z,100407.65
2022-12-05T17:05:56.410Z,100410.45
2022-12-05T17:11:02.119Z,100406.95
2022-12-05T17:16:05.614Z,100406.19
2022-12-05T17:21:18.120Z,100400.90
2022-12-05T17:26:22.862Z,100404.02
2022-12-05T17:31:26.905Z,100402.84
2022-12-05T17:36:30.308Z,100399.66
2022-12-05T17:41:33.822Z,100391.72
2022-12-05T17:46:37.188Z,100388.86
2022-12-05T17:52:05.519Z,100388.85
2022-12-05T17:57:05.258Z,100387.08
2022-12-05T18:02:11.963Z,100381.36
2022-12-05T18:07:15.872Z,100378.80
2022-12-05T18:12:19.155Z,100375.52
2022-12-05T18:17:23.619Z,100373.64
2022-12-05T18:22:27.852Z,100370.98
2022-12-05T18:27:31.498Z,100369.85
2022-12-05T18:32:34.894Z,100362.31
2022-12-05T18:37:39.012Z,100357.66
2022-12-05T18:42:42.628Z,100348.43
2022-12-05T18:47:46.043Z,100346.23
2022-12-05T18:52:49.663Z,100334.94
2022-12-05T18:57:52.874Z,100333.77
2022-12-05T19:02:56.386Z,100328.40
2022-12-05T19:08:00.187Z,100320.38
2022-12-05T19:13:03.722Z,100317.58
2022-12-05T19:18:07.036Z,100319.50
2022-12-05T19:23:10.448Z,100314.30
2022-12-05T19:28:14.576Z,100319.64
2022-12-05T19:33:17.887Z,100324.34
2022-12-05T19:38:21.199Z,100326.49
2022-12-05T19:43:24.609Z,100326.94
2022-12-05T19:48:29.662Z,100323.99
2022-12-05T19:53:36.662Z,100316.90
2022-12-05T19:58:40.380Z,100317.03
2022-12-05T20:03:50.961Z,100315.02
2022-12-05T20:08:54.787Z,100312.58
2022-12-05T20:14:00.413Z,100310.12
2022-12-05T20:19:04.887Z,100307.77
2022-12-05T20:24:09.789Z,100302.15
2022-12-05T20:29:14.497Z,100297.09
2022-12-05T20:34:19.338Z,100293.80
2022-12-05T20:39:25.096Z,100292.67
2022-12-05T20:44:28.616Z,100293.08
2022-12-05T20:49:32.021Z,100282.39
2022-12-05T20:54:35.538Z,100279.05
2022-12-05T20:59:39.157Z,100284.06
2022-12-05T21:04:42.672Z,100285.34
2022-12-05T21:09:46.190Z,100283.12
2022-12-05T21:14:49.569Z,100280.26
2022-12-05T21:19:53.113Z,100280.27
2022-12-05T21:24:56.631Z,100278.27
2022-12-05T21:30:00.519Z,100275.10
2022-12-05T21:35:04.685Z,100269.48
2022-12-05T21:40:09.123Z,100264.64
2022-12-05T21:45:12.330Z,100260.10
2022-12-05T21:50:15.745Z,100262.90
2022-12-05T21:55:19.258Z,100258.06
2022-12-05T22:00:22.571Z,100246.48
2022-12-05T22:05:25.981Z,100240.77
2022-12-05T22:10:29.294Z,100233.90
2022-12-05T22:15:32.816Z,100223.94
2022-12-05T22:20:36.220Z,100215.80
2022-12-05T22:25:39.736Z,100209.03
2022-12-05T22:30:47.451Z,100198.34
2022-12-05T22:35:54.494Z,100194.98
2022-12-05T22:41:00.483Z,100189.13
2022-12-05T22:46:08.845Z,100181.63
2022-12-05T22:51:13.085Z,100175.98
2022-12-05T22:56:19.165Z,100174.58
2022-12-05T23:01:28.114Z,100177.07
2022-12-05T23:06:33.262Z,100175.40
2022-12-05T23:11:37.084Z,100174.34
2022-12-05T23:16:40.505Z,100163.76
2022-12-05T23:21:43.501Z,100157.56
2022-12-05T23:26:46.601Z,100144.02
2022-12-05T23:31:49.676Z,100134.20
2022-12-05T23:36:52.712Z,100124.45
2022-12-05T23:41:56.127Z,100121.17
2022-12-05T23:46:59.264Z,100114.06
2022-12-05T23:52:02.336Z,100109.08
2022-12-05T23:57:05.952Z,100100.15
